sensor_id;sensor_type;location;lat;lon;timestamp;P1;durP1;ratioP1;P2;durP2;ratioP2
12535;SDS011;6334;48.696;2.114;2023-04-03T00:00:11;13.00;;;8.90;;
12535;SDS011;6334;48.696;2.114;2023-04-03T00:02:42;12.87;;;8.70;;
12535;SDS011;6334;48.696;2.114;2023-04-03T00:05:12;13.23;;;8.03;;
12535;SDS011;6334;48.696;2.114;2023-04-03T00:07:43;13.07;;;8.80;;
12535;SDS011;6334;48.696;2.114;2023-04-03T00:10:13;12.30;;;8.20;;
12535;SDS011;6334;48.696;2.114;2023-04-03T00:12:44;15.03;;;8.63;;
12535;SDS011;6334;48.696;2.114;2023-04-03T00:15:14;13.03;;;8.40;;
12535;SDS011;6334;48.696;2.114;2023-04-03T00:17:44;13.57;;;8.30;;
12535;SDS011;6334;48.696;2.114;2023-04-03T00:20:15;12.70;;;7.87;;
12535;SDS011;6334;48.696;2.114;2023-04-03T00:22:45;12.00;;;8.13;;
12535;SDS011;6334;48.696;2.114;2023-04-03T00:25:17;13.77;;;8.40;;
12535;SDS011;6334;48.696;2.114;2023-04-03T00:27:49;12.63;;;8.00;;
12535;SDS011;6334;48.696;2.114;2023-04-03T00:30:20;11.50;;;7.93;;
12535;SDS011;6334;48.696;2.114;2023-04-03T00:32:50;13.23;;;8.93;;
12535;SDS011;6334;48.696;2.114;2023-04-03T00:35:20;14.10;;;8.83;;
12535;SDS011;6334;48.696;2.114;2023-04-03T00:37:51;14.27;;;8.80;;
12535;SDS011;6334;48.696;2.114;2023-04-03T00:40:22;13.47;;;9.03;;
12535;SDS011;6334;48.696;2.114;2023-04-03T00:42:54;14.70;;;8.87;;
12535;SDS011;6334;48.696;2.114;2023-04-03T00:48:06;13.03;;;8.50;;
12535;SDS011;6334;48.696;2.114;2023-04-03T00:50:37;14.17;;;8.77;;
12535;SDS011;6334;48.696;2.114;2023-04-03T00:53:07;12.53;;;8.60;;
12535;SDS011;6334;48.696;2.114;2023-04-03T00:55:37;12.50;;;8.73;;
12535;SDS011;6334;48.696;2.114;2023-04-03T00:58:08;12.37;;;7.87;;
12535;SDS011;6334;48.696;2.114;2023-04-03T01:00:38;12.20;;;8.03;;
12535;SDS011;6334;48.696;2.114;2023-04-03T01:03:09;11.57;;;7.87;;
12535;SDS011;6334;48.696;2.114;2023-04-03T01:05:39;12.50;;;8.23;;
12535;SDS011;6334;48.696;2.114;2023-04-03T01:08:10;14.03;;;8.63;;
12535;SDS011;6334;48.696;2.114;2023-04-03T01:10:40;13.10;;;8.57;;
12535;SDS011;6334;48.696;2.114;2023-04-03T01:13:18;12.83;;;8.30;;
12535;SDS011;6334;48.696;2.114;2023-04-03T01:15:47;11.83;;;8.13;;
12535;SDS011;6334;48.696;2.114;2023-04-03T01:18:17;12.77;;;9.17;;
12535;SDS011;6334;48.696;2.114;2023-04-03T01:21:01;13.73;;;8.83;;
12535;SDS011;6334;48.696;2.114;2023-04-03T01:23:47;13.17;;;7.97;;
12535;SDS011;6334;48.696;2.114;2023-04-03T01:26:17;13.00;;;9.10;;
12535;SDS011;6334;48.696;2.114;2023-04-03T01:28:48;12.77;;;8.43;;
12535;SDS011;6334;48.696;2.114;2023-04-03T01:31:20;13.97;;;8.87;;
12535;SDS011;6334;48.696;2.114;2023-04-03T01:33:55;12.23;;;8.53;;
12535;SDS011;6334;48.696;2.114;2023-04-03T01:36:26;13.00;;;8.73;;
12535;SDS011;6334;48.696;2.114;2023-04-03T01:38:56;12.67;;;8.13;;
12535;SDS011;6334;48.696;2.114;2023-04-03T01:41:26;11.97;;;7.93;;
12535;SDS011;6334;48.696;2.114;2023-04-03T01:43:56;13.00;;;8.63;;
12535;SDS011;6334;48.696;2.114;2023-04-03T01:46:27;14.80;;;9.00;;
12535;SDS011;6334;48.696;2.114;2023-04-03T01:48:58;12.87;;;8.93;;
12535;SDS011;6334;48.696;2.114;2023-04-03T01:51:29;12.63;;;8.83;;
12535;SDS011;6334;48.696;2.114;2023-04-03T01:53:59;13.03;;;9.00;;
12535;SDS011;6334;48.696;2.114;2023-04-03T01:56:30;12.93;;;8.40;;
12535;SDS011;6334;48.696;2.114;2023-04-03T01:59:00;12.37;;;8.93;;
12535;SDS011;6334;48.696;2.114;2023-04-03T02:01:30;12.80;;;8.40;;
12535;SDS011;6334;48.696;2.114;2023-04-03T02:04:03;14.17;;;8.73;;
12535;SDS011;6334;48.696;2.114;2023-04-03T02:06:33;13.60;;;9.07;;
12535;SDS011;6334;48.696;2.114;2023-04-03T02:09:04;14.50;;;8.70;;
12535;SDS011;6334;48.696;2.114;2023-04-03T02:11:34;12.10;;;7.90;;
12535;SDS011;6334;48.696;2.114;2023-04-03T02:14:05;13.93;;;8.80;;
12535;SDS011;6334;48.696;2.114;2023-04-03T02:16:35;12.70;;;8.80;;
12535;SDS011;6334;48.696;2.114;2023-04-03T02:19:07;13.17;;;8.60;;
12535;SDS011;6334;48.696;2.114;2023-04-03T02:21:37;13.93;;;8.97;;
12535;SDS011;6334;48.696;2.114;2023-04-03T02:24:08;12.43;;;8.20;;
12535;SDS011;6334;48.696;2.114;2023-04-03T02:26:38;12.70;;;8.63;;
12535;SDS011;6334;48.696;2.114;2023-04-03T02:29:09;13.57;;;8.80;;
12535;SDS011;6334;48.696;2.114;2023-04-03T02:31:39;13.47;;;8.33;;
12535;SDS011;6334;48.696;2.114;2023-04-03T02:34:10;15.43;;;7.87;;
12535;SDS011;6334;48.696;2.114;2023-04-03T02:36:40;13.20;;;8.60;;
12535;SDS011;6334;48.696;2.114;2023-04-03T02:39:11;14.33;;;8.53;;
12535;SDS011;6334;48.696;2.114;2023-04-03T02:41:41;12.87;;;8.30;;
12535;SDS011;6334;48.696;2.114;2023-04-03T02:44:11;12.87;;;8.70;;
12535;SDS011;6334;48.696;2.114;2023-04-03T02:46:42;13.97;;;9.10;;
12535;SDS011;6334;48.696;2.114;2023-04-03T02:49:12;14.93;;;9.30;;
12535;SDS011;6334;48.696;2.114;2023-04-03T02:51:43;14.53;;;8.50;;
12535;SDS011;6334;48.696;2.114;2023-04-03T02:54:13;12.73;;;8.83;;
12535;SDS011;6334;48.696;2.114;2023-04-03T02:56:44;13.83;;;8.77;;
12535;SDS011;6334;48.696;2.114;2023-04-03T02:59:14;13.27;;;9.10;;
12535;SDS011;6334;48.696;2.114;2023-04-03T03:01:45;14.47;;;8.87;;
12535;SDS011;6334;48.696;2.114;2023-04-03T03:04:15;12.70;;;8.80;;
12535;SDS011;6334;48.696;2.114;2023-04-03T03:06:46;13.83;;;8.47;;
12535;SDS011;6334;48.696;2.114;2023-04-03T03:09:16;14.67;;;8.73;;
12535;SDS011;6334;48.696;2.114;2023-04-03T03:11:46;14.63;;;9.23;;
12535;SDS011;6334;48.696;2.114;2023-04-03T03:14:17;14.07;;;9.13;;
12535;SDS011;6334;48.696;2.114;2023-04-03T03:16:50;14.67;;;9.37;;
12535;SDS011;6334;48.696;2.114;2023-04-03T03:19:21;13.90;;;9.43;;
12535;SDS011;6334;48.696;2.114;2023-04-03T03:21:51;14.63;;;9.50;;
12535;SDS011;6334;48.696;2.114;2023-04-03T03:24:22;13.57;;;8.67;;
12535;SDS011;6334;48.696;2.114;2023-04-03T03:26:52;13.53;;;9.17;;
12535;SDS011;6334;48.696;2.114;2023-04-03T03:29:24;14.27;;;8.93;;
12535;SDS011;6334;48.696;2.114;2023-04-03T03:31:54;12.77;;;8.77;;
12535;SDS011;6334;48.696;2.114;2023-04-03T03:34:24;13.67;;;8.93;;
12535;SDS011;6334;48.696;2.114;2023-04-03T03:36:55;14.30;;;9.47;;
12535;SDS011;6334;48.696;2.114;2023-04-03T03:39:25;13.83;;;8.73;;
12535;SDS011;6334;48.696;2.114;2023-04-03T03:41:56;13.80;;;9.17;;
12535;SDS011;6334;48.696;2.114;2023-04-03T03:44:26;12.97;;;8.53;;
12535;SDS011;6334;48.696;2.114;2023-04-03T03:46:57;14.60;;;8.83;;
12535;SDS011;6334;48.696;2.114;2023-04-03T03:49:27;12.13;;;9.17;;
12535;SDS011;6334;48.696;2.114;2023-04-03T03:51:58;12.97;;;8.87;;
12535;SDS011;6334;48.696;2.114;2023-04-03T03:54:28;13.23;;;9.17;;
12535;SDS011;6334;48.696;2.114;2023-04-03T03:56:59;11.70;;;8.27;;
12535;SDS011;6334;48.696;2.114;2023-04-03T03:59:29;12.63;;;8.90;;
12535;SDS011;6334;48.696;2.114;2023-04-03T04:02:00;13.57;;;8.53;;
12535;SDS011;6334;48.696;2.114;2023-04-03T04:04:30;13.87;;;8.43;;
12535;SDS011;6334;48.696;2.114;2023-04-03T04:07:01;13.40;;;8.80;;
12535;SDS011;6334;48.696;2.114;2023-04-03T04:09:31;11.80;;;8.17;;
12535;SDS011;6334;48.696;2.114;2023-04-03T04:12:01;12.97;;;8.90;;
12535;SDS011;6334;48.696;2.114;2023-04-03T04:14:32;13.50;;;8.30;;
12535;SDS011;6334;48.696;2.114;2023-04-03T04:17:02;12.77;;;8.73;;
12535;SDS011;6334;48.696;2.114;2023-04-03T04:19:33;12.37;;;8.03;;
12535;SDS011;6334;48.696;2.114;2023-04-03T04:22:03;12.07;;;7.97;;
12535;SDS011;6334;48.696;2.114;2023-04-03T04:24:34;11.93;;;7.80;;
12535;SDS011;6334;48.696;2.114;2023-04-03T04:27:04;10.13;;;7.83;;
12535;SDS011;6334;48.696;2.114;2023-04-03T04:29:35;10.67;;;7.63;;
12535;SDS011;6334;48.696;2.114;2023-04-03T04:32:05;9.63;;;7.23;;
12535;SDS011;6334;48.696;2.114;2023-04-03T04:34:36;11.93;;;7.87;;
12535;SDS011;6334;48.696;2.114;2023-04-03T04:37:06;11.10;;;7.43;;
12535;SDS011;6334;48.696;2.114;2023-04-03T04:39:37;11.50;;;7.50;;
12535;SDS011;6334;48.696;2.114;2023-04-03T04:42:07;10.77;;;7.40;;
12535;SDS011;6334;48.696;2.114;2023-04-03T04:44:40;11.10;;;7.23;;
12535;SDS011;6334;48.696;2.114;2023-04-03T04:47:14;11.00;;;7.27;;
12535;SDS011;6334;48.696;2.114;2023-04-03T04:49:44;12.20;;;7.83;;
12535;SDS011;6334;48.696;2.114;2023-04-03T04:52:14;11.40;;;7.07;;
12535;SDS011;6334;48.696;2.114;2023-04-03T04:54:45;10.30;;;7.17;;
12535;SDS011;6334;48.696;2.114;2023-04-03T04:57:15;12.33;;;7.27;;
12535;SDS011;6334;48.696;2.114;2023-04-03T04:59:46;9.17;;;6.80;;
12535;SDS011;6334;48.696;2.114;2023-04-03T05:02:16;10.17;;;7.17;;
12535;SDS011;6334;48.696;2.114;2023-04-03T05:04:47;10.37;;;7.10;;
12535;SDS011;6334;48.696;2.114;2023-04-03T05:07:17;10.77;;;7.03;;
12535;SDS011;6334;48.696;2.114;2023-04-03T05:09:48;10.20;;;7.30;;
12535;SDS011;6334;48.696;2.114;2023-04-03T05:12:18;9.57;;;6.50;;
12535;SDS011;6334;48.696;2.114;2023-04-03T05:14:49;11.07;;;6.80;;
12535;SDS011;6334;48.696;2.114;2023-04-03T05:17:19;10.60;;;6.90;;
12535;SDS011;6334;48.696;2.114;2023-04-03T05:19:49;10.43;;;6.70;;
12535;SDS011;6334;48.696;2.114;2023-04-03T05:22:20;10.07;;;7.00;;
12535;SDS011;6334;48.696;2.114;2023-04-03T05:24:50;11.33;;;7.13;;
12535;SDS011;6334;48.696;2.114;2023-04-03T05:27:21;11.20;;;7.33;;
12535;SDS011;6334;48.696;2.114;2023-04-03T05:29:52;11.07;;;7.40;;
12535;SDS011;6334;48.696;2.114;2023-04-03T05:32:22;10.57;;;7.17;;
12535;SDS011;6334;48.696;2.114;2023-04-03T05:34:52;10.47;;;6.70;;
12535;SDS011;6334;48.696;2.114;2023-04-03T05:37:23;10.37;;;6.97;;
12535;SDS011;6334;48.696;2.114;2023-04-03T05:39:53;10.23;;;6.53;;
12535;SDS011;6334;48.696;2.114;2023-04-03T05:42:24;6.70;;;5.33;;
12535;SDS011;6334;48.696;2.114;2023-04-03T05:44:54;8.30;;;5.90;;
12535;SDS011;6334;48.696;2.114;2023-04-03T05:47:25;12.13;;;7.40;;
12535;SDS011;6334;48.696;2.114;2023-04-03T05:49:55;10.53;;;6.90;;
12535;SDS011;6334;48.696;2.114;2023-04-03T05:52:27;10.77;;;7.03;;
12535;SDS011;6334;48.696;2.114;2023-04-03T05:54:56;10.70;;;7.40;;
12535;SDS011;6334;48.696;2.114;2023-04-03T05:57:26;10.33;;;6.93;;
12535;SDS011;6334;48.696;2.114;2023-04-03T05:59:57;10.80;;;6.93;;
12535;SDS011;6334;48.696;2.114;2023-04-03T06:02:27;11.97;;;7.00;;
12535;SDS011;6334;48.696;2.114;2023-04-03T06:04:58;10.63;;;6.90;;
12535;SDS011;6334;48.696;2.114;2023-04-03T06:07:28;11.90;;;7.67;;
12535;SDS011;6334;48.696;2.114;2023-04-03T06:09:59;11.47;;;7.53;;
12535;SDS011;6334;48.696;2.114;2023-04-03T06:12:28;10.03;;;6.73;;
12535;SDS011;6334;48.696;2.114;2023-04-03T06:14:58;11.10;;;7.33;;
12535;SDS011;6334;48.696;2.114;2023-04-03T06:17:27;11.10;;;7.30;;
12535;SDS011;6334;48.696;2.114;2023-04-03T06:20:03;10.93;;;7.47;;
12535;SDS011;6334;48.696;2.114;2023-04-03T06:22:33;10.10;;;6.97;;
12535;SDS011;6334;48.696;2.114;2023-04-03T06:25:02;11.23;;;7.17;;
12535;SDS011;6334;48.696;2.114;2023-04-03T06:27:32;12.07;;;7.60;;
12535;SDS011;6334;48.696;2.114;2023-04-03T06:30:03;10.53;;;6.50;;
12535;SDS011;6334;48.696;2.114;2023-04-03T06:32:32;9.13;;;6.47;;
12535;SDS011;6334;48.696;2.114;2023-04-03T06:35:02;9.77;;;6.43;;
12535;SDS011;6334;48.696;2.114;2023-04-03T06:37:32;9.37;;;6.50;;
12535;SDS011;6334;48.696;2.114;2023-04-03T06:40:01;12.20;;;7.47;;
12535;SDS011;6334;48.696;2.114;2023-04-03T06:42:31;9.83;;;6.90;;
12535;SDS011;6334;48.696;2.114;2023-04-03T06:45:00;12.17;;;7.30;;
12535;SDS011;6334;48.696;2.114;2023-04-03T06:47:31;11.27;;;6.97;;
12535;SDS011;6334;48.696;2.114;2023-04-03T06:50:01;10.47;;;7.10;;
12535;SDS011;6334;48.696;2.114;2023-04-03T06:52:30;11.57;;;7.23;;
12535;SDS011;6334;48.696;2.114;2023-04-03T06:55:00;10.60;;;7.10;;
12535;SDS011;6334;48.696;2.114;2023-04-03T06:57:29;13.10;;;7.63;;
12535;SDS011;6334;48.696;2.114;2023-04-03T07:00:05;10.67;;;7.13;;
12535;SDS011;6334;48.696;2.114;2023-04-03T07:02:34;10.50;;;7.03;;
12535;SDS011;6334;48.696;2.114;2023-04-03T07:05:04;10.03;;;6.80;;
12535;SDS011;6334;48.696;2.114;2023-04-03T07:07:34;10.53;;;6.90;;
12535;SDS011;6334;48.696;2.114;2023-04-03T07:10:05;11.23;;;7.33;;
12535;SDS011;6334;48.696;2.114;2023-04-03T07:12:34;11.80;;;8.03;;
12535;SDS011;6334;48.696;2.114;2023-04-03T07:15:11;11.70;;;7.20;;
12535;SDS011;6334;48.696;2.114;2023-04-03T07:17:41;11.57;;;6.97;;
12535;SDS011;6334;48.696;2.114;2023-04-03T07:20:10;10.93;;;7.63;;
12535;SDS011;6334;48.696;2.114;2023-04-03T07:22:44;10.07;;;7.03;;
12535;SDS011;6334;48.696;2.114;2023-04-03T07:25:16;11.53;;;7.48;;
12535;SDS011;6334;48.696;2.114;2023-04-03T07:27:46;11.43;;;7.47;;
12535;SDS011;6334;48.696;2.114;2023-04-03T07:30:17;12.15;;;6.75;;
12535;SDS011;6334;48.696;2.114;2023-04-03T07:32:47;9.97;;;7.20;;
12535;SDS011;6334;48.696;2.114;2023-04-03T07:35:18;10.80;;;6.90;;
12535;SDS011;6334;48.696;2.114;2023-04-03T07:37:49;10.07;;;6.97;;
12535;SDS011;6334;48.696;2.114;2023-04-03T07:40:21;9.45;;;6.45;;
12535;SDS011;6334;48.696;2.114;2023-04-03T07:42:52;10.17;;;6.80;;
12535;SDS011;6334;48.696;2.114;2023-04-03T07:45:23;10.20;;;7.00;;
12535;SDS011;6334;48.696;2.114;2023-04-03T07:47:54;10.43;;;7.00;;
12535;SDS011;6334;48.696;2.114;2023-04-03T07:50:25;9.63;;;6.60;;
12535;SDS011;6334;48.696;2.114;2023-04-03T07:52:55;8.70;;;6.47;;
12535;SDS011;6334;48.696;2.114;2023-04-03T07:55:25;9.87;;;6.70;;
12535;SDS011;6334;48.696;2.114;2023-04-03T07:57:54;8.97;;;6.07;;
12535;SDS011;6334;48.696;2.114;2023-04-03T08:00:25;9.47;;;6.43;;
12535;SDS011;6334;48.696;2.114;2023-04-03T08:02:54;9.07;;;6.10;;
12535;SDS011;6334;48.696;2.114;2023-04-03T08:05:25;9.27;;;6.87;;
12535;SDS011;6334;48.696;2.114;2023-04-03T08:07:55;9.97;;;6.90;;
12535;SDS011;6334;48.696;2.114;2023-04-03T08:10:24;9.67;;;6.33;;
12535;SDS011;6334;48.696;2.114;2023-04-03T08:12:54;10.17;;;6.30;;
12535;SDS011;6334;48.696;2.114;2023-04-03T08:15:24;8.87;;;6.43;;
12535;SDS011;6334;48.696;2.114;2023-04-03T08:17:53;10.07;;;6.53;;
12535;SDS011;6334;48.696;2.114;2023-04-03T08:20:23;10.77;;;6.27;;
12535;SDS011;6334;48.696;2.114;2023-04-03T08:22:53;8.73;;;6.47;;
12535;SDS011;6334;48.696;2.114;2023-04-03T08:25:22;8.90;;;6.10;;
12535;SDS011;6334;48.696;2.114;2023-04-03T08:27:53;9.20;;;6.50;;
12535;SDS011;6334;48.696;2.114;2023-04-03T08:30:22;7.53;;;5.93;;
12535;SDS011;6334;48.696;2.114;2023-04-03T08:32:52;8.93;;;6.27;;
12535;SDS011;6334;48.696;2.114;2023-04-03T08:35:21;10.43;;;6.10;;
12535;SDS011;6334;48.696;2.114;2023-04-03T08:37:52;7.23;;;5.60;;
12535;SDS011;6334;48.696;2.114;2023-04-03T08:40:22;7.10;;;5.43;;
12535;SDS011;6334;48.696;2.114;2023-04-03T08:43:06;8.70;;;5.87;;
12535;SDS011;6334;48.696;2.114;2023-04-03T08:45:46;7.07;;;4.93;;
12535;SDS011;6334;48.696;2.114;2023-04-03T08:48:33;8.30;;;4.67;;
12535;SDS011;6334;48.696;2.114;2023-04-03T08:51:04;7.53;;;5.30;;
12535;SDS011;6334;48.696;2.114;2023-04-03T08:53:34;7.27;;;5.20;;
12535;SDS011;6334;48.696;2.114;2023-04-03T08:56:04;6.17;;;4.20;;
12535;SDS011;6334;48.696;2.114;2023-04-03T08:58:41;4.77;;;3.97;;
12535;SDS011;6334;48.696;2.114;2023-04-03T09:01:23;3.83;;;3.50;;
12535;SDS011;6334;48.696;2.114;2023-04-03T09:04:03;3.80;;;3.50;;
12535;SDS011;6334;48.696;2.114;2023-04-03T09:06:32;4.57;;;3.70;;
12535;SDS011;6334;48.696;2.114;2023-04-03T09:09:15;4.23;;;3.83;;
12535;SDS011;6334;48.696;2.114;2023-04-03T09:23:09;5.07;;;4.10;;
12535;SDS011;6334;48.696;2.114;2023-04-03T09:25:38;4.67;;;4.00;;
12535;SDS011;6334;48.696;2.114;2023-04-03T09:28:10;5.00;;;4.20;;
12535;SDS011;6334;48.696;2.114;2023-04-03T09:30:39;4.23;;;3.83;;
12535;SDS011;6334;48.696;2.114;2023-04-03T09:33:09;4.70;;;3.80;;
12535;SDS011;6334;48.696;2.114;2023-04-03T09:35:38;3.77;;;3.47;;
12535;SDS011;6334;48.696;2.114;2023-04-03T09:40:42;5.53;;;3.90;;
12535;SDS011;6334;48.696;2.114;2023-04-03T09:45:51;3.70;;;3.40;;
12535;SDS011;6334;48.696;2.114;2023-04-03T09:48:22;3.95;;;3.55;;
12535;SDS011;6334;48.696;2.114;2023-04-03T09:53:30;5.00;;;3.87;;
12535;SDS011;6334;48.696;2.114;2023-04-03T09:56:18;3.60;;;3.30;;
12535;SDS011;6334;48.696;2.114;2023-04-03T09:58:47;3.73;;;3.43;;
12535;SDS011;6334;48.696;2.114;2023-04-03T10:04:04;4.87;;;3.53;;
12535;SDS011;6334;48.696;2.114;2023-04-03T10:06:38;4.10;;;3.57;;
12535;SDS011;6334;48.696;2.114;2023-04-03T10:09:14;4.13;;;3.73;;
12535;SDS011;6334;48.696;2.114;2023-04-03T10:11:36;4.08;;;3.70;;
12535;SDS011;6334;48.696;2.114;2023-04-03T10:14:10;5.37;;;3.70;;
12535;SDS011;6334;48.696;2.114;2023-04-03T10:16:38;3.97;;;3.57;;
12535;SDS011;6334;48.696;2.114;2023-04-03T10:25:01;3.63;;;3.33;;
12535;SDS011;6334;48.696;2.114;2023-04-03T10:27:33;4.90;;;3.60;;
12535;SDS011;6334;48.696;2.114;2023-04-03T10:35:42;4.33;;;3.43;;
12535;SDS011;6334;48.696;2.114;2023-04-03T10:41:31;4.20;;;3.83;;
12535;SDS011;6334;48.696;2.114;2023-04-03T10:46:37;3.70;;;3.40;;
12535;SDS011;6334;48.696;2.114;2023-04-03T10:51:48;5.80;;;3.20;;
12535;SDS011;6334;48.696;2.114;2023-04-03T10:54:24;3.87;;;3.40;;
12535;SDS011;6334;48.696;2.114;2023-04-03T10:57:10;3.73;;;3.17;;
12535;SDS011;6334;48.696;2.114;2023-04-03T10:59:35;4.53;;;3.33;;
12535;SDS011;6334;48.696;2.114;2023-04-03T11:02:12;5.97;;;3.27;;
12535;SDS011;6334;48.696;2.114;2023-04-03T11:04:46;4.40;;;3.70;;
12535;SDS011;6334;48.696;2.114;2023-04-03T11:07:23;4.73;;;3.53;;
12535;SDS011;6334;48.696;2.114;2023-04-03T11:10:02;3.73;;;3.43;;
12535;SDS011;6334;48.696;2.114;2023-04-03T11:12:38;4.47;;;3.33;;
12535;SDS011;6334;48.696;2.114;2023-04-03T11:15:11;4.07;;;3.43;;
12535;SDS011;6334;48.696;2.114;2023-04-03T11:17:38;3.53;;;3.23;;
12535;SDS011;6334;48.696;2.114;2023-04-03T11:20:14;5.17;;;3.90;;
12535;SDS011;6334;48.696;2.114;2023-04-03T11:23:21;5.33;;;3.90;;
12535;SDS011;6334;48.696;2.114;2023-04-03T11:25:34;4.00;;;3.43;;
12535;SDS011;6334;48.696;2.114;2023-04-03T11:28:05;5.47;;;3.40;;
12535;SDS011;6334;48.696;2.114;2023-04-03T11:35:53;5.43;;;3.70;;
12535;SDS011;6334;48.696;2.114;2023-04-03T11:38:27;4.20;;;3.17;;
12535;SDS011;6334;48.696;2.114;2023-04-03T11:40:56;3.93;;;3.30;;
12535;SDS011;6334;48.696;2.114;2023-04-03T11:43:28;3.63;;;3.30;;
12535;SDS011;6334;48.696;2.114;2023-04-03T11:45:58;4.27;;;3.33;;
12535;SDS011;6334;48.696;2.114;2023-04-03T11:51:01;3.37;;;3.07;;
12535;SDS011;6334;48.696;2.114;2023-04-03T11:53:40;3.67;;;3.27;;
12535;SDS011;6334;48.696;2.114;2023-04-03T12:01:50;7.20;;;3.50;;
12535;SDS011;6334;48.696;2.114;2023-04-03T12:04:20;3.70;;;3.30;;
12535;SDS011;6334;48.696;2.114;2023-04-03T12:06:51;3.50;;;3.20;;
12535;SDS011;6334;48.696;2.114;2023-04-03T12:09:26;6.50;;;3.70;;
12535;SDS011;6334;48.696;2.114;2023-04-03T12:11:58;4.63;;;3.43;;
12535;SDS011;6334;48.696;2.114;2023-04-03T12:14:28;4.87;;;3.43;;
12535;SDS011;6334;48.696;2.114;2023-04-03T12:16:59;3.53;;;2.90;;
12535;SDS011;6334;48.696;2.114;2023-04-03T12:24:33;3.17;;;2.83;;
12535;SDS011;6334;48.696;2.114;2023-04-03T12:30:05;4.73;;;3.03;;
12535;SDS011;6334;48.696;2.114;2023-04-03T12:35:20;3.73;;;3.33;;
12535;SDS011;6334;48.696;2.114;2023-04-03T12:43:56;5.77;;;3.00;;
12535;SDS011;6334;48.696;2.114;2023-04-03T12:46:33;3.63;;;3.20;;
12535;SDS011;6334;48.696;2.114;2023-04-03T12:48:59;3.30;;;3.00;;
12535;SDS011;6334;48.696;2.114;2023-04-03T12:51:35;3.63;;;3.05;;
12535;SDS011;6334;48.696;2.114;2023-04-03T12:54:02;2.87;;;2.67;;
12535;SDS011;6334;48.696;2.114;2023-04-03T12:56:32;3.10;;;2.77;;
12535;SDS011;6334;48.696;2.114;2023-04-03T12:59:16;2.70;;;2.50;;
12535;SDS011;6334;48.696;2.114;2023-04-03T13:01:44;3.57;;;2.63;;
12535;SDS011;6334;48.696;2.114;2023-04-03T13:04:14;4.27;;;2.53;;
12535;SDS011;6334;48.696;2.114;2023-04-03T13:06:44;2.60;;;2.27;;
12535;SDS011;6334;48.696;2.114;2023-04-03T13:09:20;3.00;;;2.80;;
12535;SDS011;6334;48.696;2.114;2023-04-03T13:11:56;3.43;;;2.73;;
12535;SDS011;6334;48.696;2.114;2023-04-03T13:14:33;3.37;;;2.83;;
12535;SDS011;6334;48.696;2.114;2023-04-03T13:17:06;3.33;;;3.03;;
12535;SDS011;6334;48.696;2.114;2023-04-03T13:19:33;6.30;;;3.27;;
12535;SDS011;6334;48.696;2.114;2023-04-03T13:22:22;4.20;;;2.87;;
12535;SDS011;6334;48.696;2.114;2023-04-03T13:24:43;3.03;;;2.67;;
12535;SDS011;6334;48.696;2.114;2023-04-03T13:27:13;2.83;;;2.63;;
12535;SDS011;6334;48.696;2.114;2023-04-03T13:29:43;3.47;;;2.80;;
12535;SDS011;6334;48.696;2.114;2023-04-03T13:32:16;3.73;;;2.57;;
12535;SDS011;6334;48.696;2.114;2023-04-03T13:34:44;3.40;;;2.67;;
12535;SDS011;6334;48.696;2.114;2023-04-03T13:39:58;5.50;;;2.13;;
12535;SDS011;6334;48.696;2.114;2023-04-03T13:42:28;2.30;;;2.20;;
12535;SDS011;6334;48.696;2.114;2023-04-03T13:47:40;2.53;;;2.33;;
12535;SDS011;6334;48.696;2.114;2023-04-03T13:57:52;4.20;;;2.47;;
12535;SDS011;6334;48.696;2.114;2023-04-03T14:03:16;2.83;;;2.60;;
12535;SDS011;6334;48.696;2.114;2023-04-03T14:05:42;3.27;;;2.87;;
12535;SDS011;6334;48.696;2.114;2023-04-03T14:08:13;3.47;;;2.43;;
12535;SDS011;6334;48.696;2.114;2023-04-03T14:10:45;3.10;;;2.50;;
12535;SDS011;6334;48.696;2.114;2023-04-03T14:13:16;4.30;;;2.77;;
12535;SDS011;6334;48.696;2.114;2023-04-03T14:15:46;3.37;;;2.53;;
12535;SDS011;6334;48.696;2.114;2023-04-03T14:18:17;3.13;;;2.83;;
12535;SDS011;6334;48.696;2.114;2023-04-03T14:20:45;3.40;;;3.00;;
12535;SDS011;6334;48.696;2.114;2023-04-03T14:23:14;3.20;;;2.90;;
12535;SDS011;6334;48.696;2.114;2023-04-03T14:25:45;5.20;;;2.73;;
12535;SDS011;6334;48.696;2.114;2023-04-03T14:28:19;2.87;;;2.57;;
12535;SDS011;6334;48.696;2.114;2023-04-03T14:30:49;5.40;;;2.30;;
12535;SDS011;6334;48.696;2.114;2023-04-03T14:33:20;2.83;;;1.93;;
12535;SDS011;6334;48.696;2.114;2023-04-03T14:35:49;2.83;;;2.30;;
12535;SDS011;6334;48.696;2.114;2023-04-03T14:38:24;3.13;;;2.63;;
12535;SDS011;6334;48.696;2.114;2023-04-03T14:40:56;2.43;;;2.33;;
12535;SDS011;6334;48.696;2.114;2023-04-03T14:43:25;5.47;;;2.90;;
12535;SDS011;6334;48.696;2.114;2023-04-03T14:45:56;3.43;;;2.57;;
12535;SDS011;6334;48.696;2.114;2023-04-03T14:48:26;4.17;;;2.73;;
12535;SDS011;6334;48.696;2.114;2023-04-03T14:50:56;3.13;;;2.60;;
12535;SDS011;6334;48.696;2.114;2023-04-03T14:53:26;4.03;;;2.80;;
12535;SDS011;6334;48.696;2.114;2023-04-03T14:55:57;4.60;;;3.13;;
12535;SDS011;6334;48.696;2.114;2023-04-03T14:58:27;3.00;;;2.70;;
12535;SDS011;6334;48.696;2.114;2023-04-03T15:00:57;4.93;;;2.63;;
12535;SDS011;6334;48.696;2.114;2023-04-03T15:03:28;3.77;;;2.40;;
12535;SDS011;6334;48.696;2.114;2023-04-03T15:05:58;2.23;;;2.00;;
12535;SDS011;6334;48.696;2.114;2023-04-03T15:08:29;2.93;;;2.67;;
12535;SDS011;6334;48.696;2.114;2023-04-03T15:10:59;2.43;;;2.20;;
12535;SDS011;6334;48.696;2.114;2023-04-03T15:13:30;3.33;;;2.33;;
12535;SDS011;6334;48.696;2.114;2023-04-03T15:16:00;2.57;;;2.40;;
12535;SDS011;6334;48.696;2.114;2023-04-03T15:18:32;2.60;;;2.23;;
12535;SDS011;6334;48.696;2.114;2023-04-03T15:21:01;2.60;;;2.40;;
12535;SDS011;6334;48.696;2.114;2023-04-03T15:23:31;6.43;;;2.53;;
12535;SDS011;6334;48.696;2.114;2023-04-03T15:26:00;3.27;;;2.70;;
12535;SDS011;6334;48.696;2.114;2023-04-03T15:28:31;4.77;;;2.80;;
12535;SDS011;6334;48.696;2.114;2023-04-03T15:30:59;2.60;;;2.40;;
12535;SDS011;6334;48.696;2.114;2023-04-03T15:33:30;2.57;;;2.37;;
12535;SDS011;6334;48.696;2.114;2023-04-03T15:36:01;4.20;;;2.80;;
12535;SDS011;6334;48.696;2.114;2023-04-03T15:38:30;2.30;;;2.10;;
12535;SDS011;6334;48.696;2.114;2023-04-03T15:41:00;4.30;;;2.70;;
12535;SDS011;6334;48.696;2.114;2023-04-03T15:43:29;2.63;;;2.43;;
12535;SDS011;6334;48.696;2.114;2023-04-03T15:45:59;3.40;;;2.47;;
12535;SDS011;6334;48.696;2.114;2023-04-03T15:48:28;4.43;;;2.47;;
12535;SDS011;6334;48.696;2.114;2023-04-03T15:50:59;2.33;;;2.23;;
12535;SDS011;6334;48.696;2.114;2023-04-03T15:53:28;3.40;;;1.93;;
12535;SDS011;6334;48.696;2.114;2023-04-03T15:55:59;13.43;;;2.80;;
12535;SDS011;6334;48.696;2.114;2023-04-03T15:58:29;7.80;;;2.80;;
12535;SDS011;6334;48.696;2.114;2023-04-03T16:01:00;3.30;;;2.30;;
12535;SDS011;6334;48.696;2.114;2023-04-03T16:03:30;3.90;;;2.63;;
12535;SDS011;6334;48.696;2.114;2023-04-03T16:06:01;2.90;;;2.37;;
12535;SDS011;6334;48.696;2.114;2023-04-03T16:08:31;3.63;;;2.80;;
12535;SDS011;6334;48.696;2.114;2023-04-03T16:11:02;2.50;;;2.30;;
12535;SDS011;6334;48.696;2.114;2023-04-03T16:13:32;2.53;;;2.33;;
12535;SDS011;6334;48.696;2.114;2023-04-03T16:16:02;3.03;;;2.43;;
12535;SDS011;6334;48.696;2.114;2023-04-03T16:18:33;3.20;;;2.27;;
12535;SDS011;6334;48.696;2.114;2023-04-03T16:21:05;7.77;;;2.77;;
12535;SDS011;6334;48.696;2.114;2023-04-03T16:23:36;4.73;;;2.70;;
12535;SDS011;6334;48.696;2.114;2023-04-03T16:26:07;3.53;;;2.67;;
12535;SDS011;6334;48.696;2.114;2023-04-03T16:28:37;3.60;;;2.70;;
12535;SDS011;6334;48.696;2.114;2023-04-03T16:34:38;2.37;;;1.97;;
12535;SDS011;6334;48.696;2.114;2023-04-03T16:37:08;3.70;;;2.27;;
12535;SDS011;6334;48.696;2.114;2023-04-03T16:39:40;1.90;;;1.80;;
12535;SDS011;6334;48.696;2.114;2023-04-03T16:42:10;3.30;;;2.30;;
12535;SDS011;6334;48.696;2.114;2023-04-03T16:44:42;4.20;;;2.37;;
12535;SDS011;6334;48.696;2.114;2023-04-03T16:47:12;2.00;;;1.83;;
12535;SDS011;6334;48.696;2.114;2023-04-03T16:49:43;2.47;;;2.27;;
12535;SDS011;6334;48.696;2.114;2023-04-03T16:52:13;3.13;;;2.73;;